Vrsac, Serbia

12:07 AM CEST on August 22, 2014 (GMT +0200)
Vrsac | Change Station
CLOSE
Current Station
Airport
Location: Vrsac,
Elevation: 279 ft
Nearby Weather Stations

Elev 279 ft 45.15 °N, 21.31 °E | Updated 7 minutes ago

Mostly Cloudy
Mostly Cloudy
59 °F
Feels Like 59 °F
N
2
Wind Variable Wind from ENE

Today
High -- | Low -- °F
--% Chance of Precip.
Yesterday
High -- | Low -- °F
Precip. -- in
5:44 AM 7:30 PM
Waning Crescent, 12% visible
Pressure 30.06 in
Visibility 6.2 miles
Clouds Mostly Cloudy 4000 ft
Dew Point 57 °F
Humidity 94%
Rainfall 0.00 in
Snow Depth Not available.
UV 0 out of 12
Pollen Not available.
Air Quality Not available.
Flu Activity Not available.
METAR LYVR 212200Z 07002KT 9999 BKN040 15/14 Q1018 NOSIG

More Conditions Fewer Conditions

Pressure 30.06 in
Visibility 6.2 miles
Clouds Mostly Cloudy 4000 ft
Dew Point 57 °F
Humidity 94%
Rainfall 0.00 in
Snow Depth Not available.
UV 0 out of 12
Pollen Not available.
Air Quality Not available.
Flu Activity Not available.
METAR LYVR 212200Z 07002KT 9999 BKN040 15/14 Q1018 NOSIG

More Conditions Fewer Conditions

10-Day Weather Forecast

Almanac

Astronomy

Aug. 22, 2014 Rise Set
Actual Time 5:44 AM CEST 7:30 PM CEST
Civil Twilight 5:12 AM CEST 8:01 PM CEST
Nautical Twilight 4:34 AM CEST 8:39 PM CEST
Astronomical Twilight 3:52 AM CEST 9:20 PM CEST
Moon 2:46 AM CEST (8/22) 5:29 PM CEST (8/22)
Length of Visible Light 14h 48m
Length of Day
13h 46m
Tomorrow will be 2m 56s shorter.
Waning Crescent, 12% of the Moon is Illuminated
Aug 21
Waning Crescent
Aug 25
New
Sep 2
First Quarter
Sep 8
Full
Sep 15
Last Quarter

Community

WunderPhotos

Upload Photos

1,746,033 photos uploaded!

WunderBlogs® & News

Nearby

Snow Depth

Not available.

Earthquake Activity

City Distance Mag. Time & Date
No recent earthquake activity has been reported nearby.
Minimum magnitude displayed is 2.5.

Coastal Water Temperatures

Place Temperature
No Stations Reporting

Nearby Weather Stations